Time;durP1;ratioP1;P1;durP2;ratioP2;P2;SDS_P1;SDS_P2;PMS_P1;PMS_P2;Temp;Humidity;BMP_temperature;BMP_pressure;BME280_temperature;BME280_humidity;BME280_pressure;Samples;Min_cycle;Max_cycle;Signal;HPM_P1;HPM_P2
2020/12/01 00:01:52;;;;;;;12.63;10.57;;;3.00;99.90;;;;;;5035129;28;20455;-58
2020/12/01 00:04:19;;;;;;;16.13;10.90;;;3.00;99.90;;;;;;5034687;28;20476;-57
2020/12/01 00:06:46;;;;;;;17.33;11.43;;;3.00;99.90;;;;;;5034861;28;20480;-58
2020/12/01 00:09:12;;;;;;;16.20;11.07;;;3.00;99.90;;;;;;5034962;28;20479;-55
2020/12/01 00:11:38;;;;;;;17.50;11.60;;;3.10;99.90;;;;;;5034990;28;20456;-58
2020/12/01 00:14:05;;;;;;;20.43;11.80;;;3.10;99.90;;;;;;5035313;28;20456;-58
2020/12/01 00:16:32;;;;;;;16.93;11.07;;;3.10;99.90;;;;;;5035022;28;20448;-55
2020/12/01 00:18:59;;;;;;;16.47;11.40;;;3.00;99.90;;;;;;5034938;28;20498;-57
2020/12/01 00:21:26;;;;;;;20.00;11.50;;;3.10;99.90;;;;;;5034918;28;20768;-57
2020/12/01 00:23:52;;;;;;;16.07;11.33;;;3.10;99.90;;;;;;5034654;28;20533;-56
2020/12/01 00:26:19;;;;;;;15.70;10.30;;;3.20;99.90;;;;;;5034610;28;20563;-57
2020/12/01 00:28:46;;;;;;;15.17;9.97;;;3.20;99.90;;;;;;5034707;28;20487;-58
2020/12/01 00:31:12;;;;;;;17.07;11.63;;;3.20;99.90;;;;;;5034835;28;20486;-57
2020/12/01 00:33:39;;;;;;;16.70;11.43;;;3.20;99.90;;;;;;5035062;28;20460;-54
2020/12/01 00:36:06;;;;;;;16.70;12.37;;;3.10;99.90;;;;;;5034817;28;20448;-60
2020/12/01 00:38:32;;;;;;;17.27;12.33;;;3.10;99.90;;;;;;5034963;28;20459;-67
2020/12/01 00:40:58;;;;;;;16.00;11.50;;;3.10;99.90;;;;;;5034945;28;20460;-71
2020/12/01 00:43:24;;;;;;;14.60;11.23;;;3.20;99.90;;;;;;5034923;28;20738;-67
2020/12/01 00:45:50;;;;;;;16.37;11.70;;;3.20;99.90;;;;;;5034871;28;20553;-68
2020/12/01 00:48:16;;;;;;;14.47;10.33;;;3.20;99.90;;;;;;5034646;28;20987;-68
2020/12/01 00:50:44;;;;;;;15.77;11.40;;;3.20;99.90;;;;;;5034851;28;20452;-63
2020/12/01 00:53:10;;;;;;;13.40;10.93;;;3.20;99.90;;;;;;5034666;28;20456;-67
2020/12/01 00:55:36;;;;;;;16.00;11.90;;;3.30;99.90;;;;;;5035034;28;20452;-67
2020/12/01 00:58:03;;;;;;;15.70;10.83;;;3.30;99.90;;;;;;5034534;28;20456;-67
2020/12/01 01:00:31;;;;;;;19.90;11.63;;;3.30;99.90;;;;;;5034578;28;20456;-66
2020/12/01 01:02:57;;;;;;;15.43;11.40;;;3.30;99.90;;;;;;5034394;28;20869;-67
2020/12/01 01:05:24;;;;;;;14.47;10.57;;;3.30;99.90;;;;;;5034465;28;20537;-66
2020/12/01 01:07:51;;;;;;;18.83;11.70;;;3.30;99.90;;;;;;5037607;28;20451;-66
2020/12/01 01:10:19;;;;;;;16.40;12.23;;;3.30;99.90;;;;;;5038334;28;20486;-67
2020/12/01 01:12:45;;;;;;;15.60;10.90;;;3.30;99.90;;;;;;5038196;28;20510;-66
2020/12/01 01:15:12;;;;;;;18.90;12.23;;;3.10;99.90;;;;;;5038063;28;20456;-67
2020/12/01 01:17:38;;;;;;;18.23;12.03;;;3.10;99.90;;;;;;5039428;28;20525;-67
2020/12/01 01:20:06;;;;;;;15.57;11.00;;;3.20;99.90;;;;;;5037836;28;20452;-66
2020/12/01 01:22:32;;;;;;;15.90;11.37;;;3.20;99.90;;;;;;5038306;28;20510;-66
2020/12/01 01:24:59;;;;;;;18.27;12.67;;;3.20;99.90;;;;;;5037871;28;20939;-67
2020/12/01 01:27:26;;;;;;;19.23;12.87;;;3.20;99.90;;;;;;5037935;28;20549;-67
2020/12/01 01:29:52;;;;;;;14.10;10.90;;;3.30;99.90;;;;;;5037843;28;20490;-66
2020/12/01 01:32:18;;;;;;;16.93;11.97;;;3.20;99.90;;;;;;5037655;28;20517;-66
2020/12/01 01:34:44;;;;;;;18.77;12.57;;;3.20;99.90;;;;;;5037930;28;20783;-67
2020/12/01 01:37:10;;;;;;;17.67;12.70;;;3.20;99.90;;;;;;5038013;28;20480;-66
2020/12/01 01:39:36;;;;;;;22.27;13.30;;;3.20;99.90;;;;;;5037749;28;20455;-67
2020/12/01 01:42:06;;;;;;;16.33;12.40;;;3.20;99.90;;;;;;5037560;28;20871;-66
2020/12/01 01:44:32;;;;;;;17.93;12.80;;;3.20;99.90;;;;;;5037410;28;20460;-67
2020/12/01 01:47:03;;;;;;;17.03;11.73;;;3.20;99.90;;;;;;5037721;28;20479;-64
2020/12/01 01:49:33;;;;;;;17.43;11.50;;;3.10;99.90;;;;;;5037511;28;20514;-64
2020/12/01 01:51:59;;;;;;;18.10;12.43;;;3.10;99.90;;;;;;5037401;28;20452;-65
2020/12/01 01:54:27;;;;;;;19.43;14.13;;;3.10;99.90;;;;;;5037491;28;20762;-67
2020/12/01 01:56:56;;;;;;;19.37;12.80;;;3.10;99.90;;;;;;5037354;28;20452;-67
2020/12/01 01:59:25;;;;;;;19.10;12.60;;;3.20;99.90;;;;;;5037209;28;20467;-66
2020/12/01 02:01:53;;;;;;;18.97;12.60;;;3.20;99.90;;;;;;5037656;28;20521;-66
2020/12/01 02:04:20;;;;;;;22.07;13.70;;;3.20;99.90;;;;;;5037160;28;20480;-66
2020/12/01 02:06:50;;;;;;;18.60;13.27;;;3.20;99.90;;;;;;5037397;28;20480;-67
2020/12/01 02:09:19;;;;;;;16.30;12.10;;;3.20;99.90;;;;;;5037788;28;20452;-66
2020/12/01 02:11:46;;;;;;;19.07;12.57;;;3.20;99.90;;;;;;5036891;28;20488;-64
2020/12/01 02:14:16;;;;;;;20.27;13.43;;;3.20;99.90;;;;;;5037154;28;20455;-64
2020/12/01 02:16:45;;;;;;;18.00;12.83;;;3.20;99.90;;;;;;5036481;28;20979;-64
2020/12/01 02:19:15;;;;;;;20.70;12.90;;;3.30;99.90;;;;;;5037620;28;20719;-64
2020/12/01 02:21:42;;;;;;;19.17;13.30;;;3.30;99.90;;;;;;5036929;28;20518;-64
2020/12/01 02:24:11;;;;;;;22.80;15.13;;;3.20;99.90;;;;;;5036929;28;20460;-66
2020/12/01 02:26:38;;;;;;;20.03;13.60;;;3.10;99.90;;;;;;5036596;28;20576;-66
2020/12/01 02:29:10;;;;;;;22.53;14.03;;;3.20;99.90;;;;;;5036818;28;20451;-66
2020/12/01 02:31:36;;;;;;;21.73;13.93;;;3.20;99.90;;;;;;5036745;28;20437;-66
2020/12/01 02:34:04;;;;;;;20.10;12.57;;;3.20;99.90;;;;;;5036672;28;20448;-66
2020/12/01 02:36:31;;;;;;;16.73;12.67;;;3.20;99.90;;;;;;5036646;28;20526;-66
2020/12/01 02:38:57;;;;;;;20.00;12.73;;;3.20;99.90;;;;;;5036259;28;20456;-66
2020/12/01 02:41:23;;;;;;;19.73;13.30;;;3.20;99.90;;;;;;5037536;28;20491;-66
2020/12/01 02:43:50;;;;;;;20.40;13.50;;;3.30;99.90;;;;;;5037035;28;20525;-67
2020/12/01 02:46:16;;;;;;;18.70;13.10;;;3.30;99.90;;;;;;5036735;28;20545;-64
2020/12/01 02:48:42;;;;;;;20.07;13.37;;;3.40;99.90;;;;;;5037233;28;20522;-65
2020/12/01 02:51:08;;;;;;;20.87;13.67;;;3.40;99.90;;;;;;5036867;28;20569;-66
2020/12/01 02:53:34;;;;;;;21.10;14.37;;;3.40;99.90;;;;;;5036877;28;20834;-65
2020/12/01 02:56:00;;;;;;;22.30;14.07;;;3.30;99.90;;;;;;5036635;28;20483;-65
2020/12/01 02:58:26;;;;;;;20.53;14.83;;;3.30;99.90;;;;;;5036861;28;20452;-65
2020/12/01 03:00:53;;;;;;;20.53;13.47;;;3.30;99.90;;;;;;5038361;28;20845;-66
2020/12/01 03:03:19;;;;;;;18.80;13.30;;;3.20;99.90;;;;;;5037730;28;20484;-66
2020/12/01 03:05:45;;;;;;;20.40;14.27;;;3.30;99.90;;;;;;5038776;28;20451;-65
2020/12/01 03:08:11;;;;;;;21.30;14.70;;;3.20;99.90;;;;;;5041603;28;20528;-65
2020/12/01 03:10:37;;;;;;;21.07;13.97;;;3.20;99.90;;;;;;5046713;28;20514;-66
2020/12/01 03:13:03;;;;;;;21.30;13.47;;;3.20;99.90;;;;;;5047216;28;20490;-66
2020/12/01 03:15:29;;;;;;;22.30;14.80;;;3.30;99.90;;;;;;5047469;28;20518;-65
2020/12/01 03:17:56;;;;;;;22.60;15.40;;;3.20;99.90;;;;;;5041083;28;20531;-64
2020/12/01 03:20:23;;;;;;;24.07;14.57;;;3.20;99.90;;;;;;5036176;28;20839;-65
2020/12/01 03:22:49;;;;;;;22.37;15.03;;;3.30;99.90;;;;;;5036085;28;20483;-65
2020/12/01 03:25:15;;;;;;;19.93;14.50;;;3.20;99.90;;;;;;5036164;28;20450;-65
2020/12/01 03:27:41;;;;;;;24.93;15.83;;;3.20;99.90;;;;;;5035991;28;20998;-66
2020/12/01 03:30:08;;;;;;;27.43;15.53;;;3.30;99.90;;;;;;5034911;28;20838;-65
2020/12/01 03:32:34;;;;;;;25.03;15.97;;;3.30;99.90;;;;;;5035617;28;20456;-65
2020/12/01 03:35:01;;;;;;;27.53;17.10;;;3.40;99.90;;;;;;5035534;28;20452;-65
2020/12/01 03:37:27;;;;;;;23.87;17.00;;;3.40;99.90;;;;;;5035726;28;20488;-65
2020/12/01 03:39:53;;;;;;;20.87;15.07;;;3.40;99.90;;;;;;5035880;28;20518;-65
2020/12/01 03:42:19;;;;;;;22.00;15.53;;;3.40;99.90;;;;;;5035627;28;20456;-65
2020/12/01 03:44:45;;;;;;;26.03;15.30;;;3.30;99.90;;;;;;5035339;28;20518;-65
2020/12/01 03:47:11;;;;;;;22.80;15.40;;;3.40;99.90;;;;;;5035511;28;20476;-66
2020/12/01 03:49:37;;;;;;;24.93;16.53;;;3.40;99.90;;;;;;5035591;28;20460;-65
2020/12/01 03:52:04;;;;;;;25.00;17.63;;;3.40;99.90;;;;;;5035611;28;20490;-65
2020/12/01 03:54:30;;;;;;;21.57;15.97;;;3.40;99.90;;;;;;5035489;28;20530;-65
2020/12/01 03:56:56;;;;;;;27.43;17.87;;;3.30;99.90;;;;;;5036624;28;20486;-64
2020/12/01 03:59:23;;;;;;;24.50;16.97;;;3.40;99.90;;;;;;5035183;28;20459;-64
2020/12/01 04:01:49;;;;;;;27.23;16.87;;;3.40;99.90;;;;;;5035086;28;20928;-64
2020/12/01 04:04:16;;;;;;;25.40;16.60;;;3.40;99.90;;;;;;5036659;28;20479;-64
2020/12/01 04:06:42;;;;;;;28.17;17.73;;;3.40;99.90;;;;;;5035451;28;20484;-64
2020/12/01 04:09:09;;;;;;;22.93;16.57;;;3.40;99.90;;;;;;5034655;28;20975;-64
2020/12/01 04:11:35;;;;;;;27.97;18.37;;;3.40;99.90;;;;;;5034755;28;20452;-65
2020/12/01 04:14:01;;;;;;;26.50;18.40;;;3.40;99.90;;;;;;5035024;28;20455;-65
2020/12/01 04:16:27;;;;;;;30.60;20.37;;;3.30;99.90;;;;;;5035034;28;20475;-65
2020/12/01 04:18:53;;;;;;;26.83;17.40;;;3.20;99.90;;;;;;5034939;28;20456;-65
2020/12/01 04:21:19;;;;;;;30.13;18.13;;;3.20;99.90;;;;;;5034874;28;20456;-65
2020/12/01 04:23:51;;;;;;;27.73;18.03;;;3.30;99.90;;;;;;5034871;28;20456;-65
2020/12/01 04:26:21;;;;;;;27.60;18.33;;;3.40;99.90;;;;;;5034924;28;20564;-65
2020/12/01 04:28:47;;;;;;;29.13;18.20;;;3.40;99.90;;;;;;5034860;28;20440;-65
2020/12/01 04:31:13;;;;;;;31.73;18.70;;;3.30;99.90;;;;;;5034703;28;20456;-64
2020/12/01 04:33:40;;;;;;;27.63;17.40;;;3.40;99.90;;;;;;5034736;28;20463;-64
2020/12/01 04:36:06;;;;;;;30.83;19.83;;;3.40;99.90;;;;;;5034839;28;20787;-65
2020/12/01 04:38:32;;;;;;;31.97;21.00;;;3.30;99.90;;;;;;5034466;28;20938;-64
2020/12/01 04:40:58;;;;;;;27.47;19.27;;;3.30;99.90;;;;;;5036398;28;20460;-64
2020/12/01 04:43:32;;;;;;;29.50;19.03;;;3.30;99.90;;;;;;5038751;28;20452;-63
2020/12/01 04:45:59;;;;;;;29.80;19.77;;;3.20;99.90;;;;;;5039713;28;20474;-63
2020/12/01 04:48:34;;;;;;;30.90;21.17;;;3.20;99.90;;;;;;5038636;28;20782;-63
2020/12/01 04:51:08;;;;;;;30.13;20.67;;;3.20;99.90;;;;;;5038717;28;20446;-64
2020/12/01 04:54:05;;;;;;;34.90;21.17;;;3.30;99.90;;;;;;5038752;28;20435;-63
2020/12/01 04:56:48;;;;;;;28.53;18.43;;;3.30;99.90;;;;;;4993998;28;20522;-63
2020/12/01 04:59:45;;;;;;;28.90;19.33;;;3.40;99.90;;;;;;5038689;28;20490;-66
2020/12/01 05:02:37;;;;;;;31.00;19.70;;;3.30;99.90;;;;;;5038715;28;20823;-65
2020/12/01 05:05:21;;;;;;;32.37;20.13;;;3.20;99.90;;;;;;5038693;28;20436;-63
2020/12/01 05:08:08;;;;;;;33.87;18.63;;;3.20;99.90;;;;;;5039358;28;20516;-63
2020/12/01 05:10:35;;;;;;;33.17;19.50;;;3.20;99.90;;;;;;5038344;28;20836;-63
2020/12/01 05:13:16;;;;;;;34.27;22.00;;;3.20;99.90;;;;;;5038325;28;20460;-63
2020/12/01 05:15:48;;;;;;;29.70;20.40;;;3.20;99.90;;;;;;5038142;28;20462;-63
2020/12/01 05:18:18;;;;;;;33.27;20.90;;;3.20;99.90;;;;;;5038205;28;20598;-61
2020/12/01 05:20:48;;;;;;;37.50;22.17;;;3.20;99.90;;;;;;5037983;28;20943;-63
2020/12/01 05:23:18;;;;;;;36.10;22.70;;;3.20;99.90;;;;;;5039072;28;20448;-63
2020/12/01 05:25:44;;;;;;;37.00;23.30;;;3.20;99.90;;;;;;5038053;28;20841;-62
2020/12/01 05:28:12;;;;;;;34.37;21.27;;;3.20;99.90;;;;;;5040161;28;20447;-61
2020/12/01 05:30:39;;;;;;;37.13;22.00;;;3.30;99.90;;;;;;5038053;28;20470;-63
2020/12/01 05:33:18;;;;;;;36.77;21.23;;;3.30;99.90;;;;;;5046649;28;20517;-62
2020/12/01 05:35:55;;;;;;;39.43;23.40;;;3.30;99.90;;;;;;5044187;28;20475;-64
2020/12/01 05:38:21;;;;;;;34.10;19.67;;;3.30;99.90;;;;;;5043454;28;20507;-65
2020/12/01 05:40:49;;;;;;;34.80;22.00;;;3.30;99.90;;;;;;5043718;28;20448;-65
2020/12/01 05:43:24;;;;;;;32.97;20.90;;;3.30;99.90;;;;;;5042100;28;20448;-65
2020/12/01 05:45:51;;;;;;;36.77;22.53;;;3.30;99.90;;;;;;5042056;28;20530;-64
2020/12/01 05:48:44;;;;;;;30.73;20.47;;;3.30;99.90;;;;;;5037830;28;20921;-65
2020/12/01 05:51:15;;;;;;;35.67;22.00;;;3.30;99.90;;;;;;5037905;28;20746;-65
2020/12/01 05:53:42;;;;;;;34.47;21.33;;;3.30;99.90;;;;;;5037197;28;20456;-65
2020/12/01 05:56:16;;;;;;;39.10;21.97;;;3.20;99.90;;;;;;5037534;28;20464;-64
2020/12/01 05:58:45;;;;;;;35.20;20.00;;;3.20;99.90;;;;;;5037760;28;20513;-65
2020/12/01 06:01:12;;;;;;;34.97;21.93;;;3.20;99.90;;;;;;5037435;28;20460;-65
2020/12/01 06:04:04;;;;;;;37.77;22.97;;;3.10;99.90;;;;;;5037198;28;20498;-64
2020/12/01 06:06:50;;;;;;;32.50;21.00;;;3.10;99.90;;;;;;5037445;28;20464;-65
2020/12/01 06:09:31;;;;;;;34.10;21.13;;;3.20;99.90;;;;;;5021584;28;20521;-63
2020/12/01 06:12:05;;;;;;;33.13;21.07;;;3.20;99.90;;;;;;5039128;28;20445;-65
2020/12/01 06:14:36;;;;;;;34.93;22.40;;;3.10;99.90;;;;;;5038736;28;20441;-65
2020/12/01 06:17:07;;;;;;;37.37;21.63;;;3.10;99.90;;;;;;5038987;28;20737;-64
2020/12/01 06:19:40;;;;;;;36.57;23.30;;;3.00;99.90;;;;;;5038769;28;20582;-64
2020/12/01 06:22:36;;;;;;;37.17;23.73;;;3.00;99.90;;;;;;5038635;28;20441;-63
2020/12/01 06:25:20;;;;;;;40.57;23.13;;;3.00;99.90;;;;;;5038241;28;20502;-62
2020/12/01 06:28:14;;;;;;;38.03;22.63;;;3.00;99.90;;;;;;5037468;28;20491;-62
2020/12/01 06:31:22;;;;;;;39.57;21.90;;;3.00;99.90;;;;;;5037460;28;20742;-63
2020/12/01 06:34:12;;;;;;;35.60;23.40;;;3.00;99.90;;;;;;5022118;28;20456;-65
2020/12/01 06:37:12;;;;;;;41.07;23.30;;;3.10;99.90;;;;;;5038299;28;20809;-62
2020/12/01 06:39:52;;;;;;;36.37;22.27;;;3.10;99.90;;;;;;5037308;28;20470;-65
2020/12/01 06:42:24;;;;;;;38.83;23.13;;;3.20;99.90;;;;;;5037742;28;20498;-65
2020/12/01 06:44:54;;;;;;;35.10;22.43;;;3.20;99.90;;;;;;5041630;28;20433;-65
2020/12/01 06:47:31;;;;;;;35.47;22.10;;;3.20;99.90;;;;;;5041924;28;20555;-63
2020/12/01 06:50:00;;;;;;;35.30;21.70;;;3.20;99.90;;;;;;5038976;28;20455;-62
2020/12/01 06:52:27;;;;;;;40.70;24.37;;;3.10;99.90;;;;;;5038659;28;20517;-62
2020/12/01 06:54:56;;;;;;;40.20;23.53;;;3.10;99.90;;;;;;5038777;28;20456;-62
2020/12/01 06:57:29;;;;;;;37.90;20.60;;;3.20;99.90;;;;;;5040199;28;20456;-69
2020/12/01 06:59:55;;;;;;;41.83;23.13;;;3.20;99.90;;;;;;5041906;28;20447;-61
2020/12/01 07:02:31;;;;;;;35.80;23.00;;;3.30;99.90;;;;;;5042305;28;20884;-61
2020/12/01 07:05:06;;;;;;;40.17;23.73;;;3.40;99.90;;;;;;5040730;28;20498;-60
2020/12/01 07:07:37;;;;;;;39.77;22.57;;;3.50;99.90;;;;;;5039153;28;20510;-60
2020/12/01 07:10:20;;;;;;;37.80;22.57;;;3.40;99.90;;;;;;5039764;28;20571;-59
2020/12/01 07:12:51;;;;;;;34.63;21.50;;;3.40;99.90;;;;;;5041096;28;20437;-60
2020/12/01 07:15:28;;;;;;;37.60;22.97;;;3.30;99.90;;;;;;5039993;28;20448;-59
2020/12/01 07:18:02;;;;;;;35.07;21.80;;;3.20;99.90;;;;;;5039909;28;20440;-59
2020/12/01 07:20:39;;;;;;;36.17;22.53;;;3.30;99.90;;;;;;5040613;28;20451;-60
2020/12/01 07:23:15;;;;;;;41.80;22.93;;;3.40;99.90;;;;;;5040827;28;20811;-58
2020/12/01 07:25:53;;;;;;;38.27;23.03;;;3.40;99.90;;;;;;5038140;28;20440;-59
2020/12/01 07:28:27;;;;;;;36.23;19.83;;;3.40;99.90;;;;;;5038713;28;20468;-59
2020/12/01 07:30:57;;;;;;;33.27;22.00;;;3.40;99.90;;;;;;5038875;28;20440;-60
2020/12/01 07:33:27;;;;;;;38.67;22.43;;;3.50;99.90;;;;;;5039711;28;20441;-59
2020/12/01 07:35:55;;;;;;;39.93;23.50;;;3.50;99.90;;;;;;5038503;28;20947;-60
2020/12/01 07:38:30;;;;;;;39.77;22.90;;;3.50;99.90;;;;;;5037706;28;20448;-61
2020/12/01 07:41:32;;;;;;;41.57;23.63;;;3.50;99.90;;;;;;5037417;28;20448;-59
2020/12/01 07:44:38;;;;;;;36.93;22.33;;;3.50;99.90;;;;;;5033817;28;20460;-58
2020/12/01 07:47:11;;;;;;;35.23;20.40;;;3.50;99.90;;;;;;5035684;28;20803;-60
2020/12/01 07:49:37;;;;;;;38.27;23.80;;;3.50;99.90;;;;;;5041334;28;20452;-61
2020/12/01 07:52:18;;;;;;;33.10;21.53;;;3.50;99.90;;;;;;5040920;28;20459;-60
2020/12/01 07:54:49;;;;;;;37.17;22.60;;;3.60;99.90;;;;;;5038878;28;20490;-61
2020/12/01 07:57:17;;;;;;;35.93;22.17;;;3.60;99.90;;;;;;5037441;28;20462;-68
2020/12/01 07:59:45;;;;;;;36.10;21.93;;;3.60;99.90;;;;;;5038802;28;20733;-60
2020/12/01 08:02:12;;;;;;;37.83;22.50;;;3.60;99.90;;;;;;5040059;28;20474;-60
2020/12/01 08:04:39;;;;;;;31.17;21.00;;;3.80;99.90;;;;;;5040282;28;20436;-57
2020/12/01 08:07:06;;;;;;;39.80;22.90;;;3.80;99.90;;;;;;5039730;28;20558;-59
2020/12/01 08:10:04;;;;;;;32.97;22.10;;;3.70;99.90;;;;;;5040560;28;20830;-60
2020/12/01 08:13:18;;;;;;;37.53;21.50;;;3.60;99.90;;;;;;5042210;28;20480;-62
2020/12/01 08:15:46;;;;;;;31.87;19.20;;;3.60;99.90;;;;;;5040898;28;20498;-60
2020/12/01 08:18:15;;;;;;;33.37;21.57;;;3.60;99.90;;;;;;5042735;28;20459;-58
2020/12/01 08:20:42;;;;;;;35.67;21.73;;;3.60;99.90;;;;;;5041458;28;20464;-68
2020/12/01 08:23:12;;;;;;;33.53;21.27;;;3.70;99.90;;;;;;5040336;28;20455;-67
2020/12/01 08:25:39;;;;;;;44.60;21.53;;;3.70;99.90;;;;;;5038604;28;20421;-67
2020/12/01 08:28:21;;;;;;;30.97;19.87;;;3.70;99.90;;;;;;5040850;28;20812;-68
2020/12/01 08:30:59;;;;;;;33.60;21.40;;;3.60;99.90;;;;;;5040533;28;20448;-68
2020/12/01 08:33:37;;;;;;;35.43;21.27;;;3.60;99.90;;;;;;5039592;28;20450;-60
2020/12/01 08:36:12;;;;;;;36.83;20.80;;;3.70;99.90;;;;;;5036862;28;20452;-58
2020/12/01 08:38:56;;;;;;;37.57;21.63;;;3.80;99.90;;;;;;5037804;28;20463;-59
2020/12/01 08:41:38;;;;;;;33.97;21.87;;;4.00;99.90;;;;;;5037999;28;20436;-69
2020/12/01 08:44:10;;;;;;;32.03;19.73;;;3.90;99.90;;;;;;5038326;28;20436;-67
2020/12/01 08:46:43;;;;;;;34.23;20.50;;;4.00;99.90;;;;;;5038821;28;20536;-68
2020/12/01 08:49:23;;;;;;;34.77;20.67;;;4.00;99.90;;;;;;5038950;28;20820;-69
2020/12/01 08:51:52;;;;;;;26.77;18.80;;;4.10;99.90;;;;;;5038808;28;20525;-68
2020/12/01 08:54:22;;;;;;;34.03;19.80;;;4.20;99.90;;;;;;5038891;28;20470;-66
2020/12/01 08:57:13;;;;;;;31.20;19.17;;;4.40;99.90;;;;;;5038933;28;20691;-68
2020/12/01 08:59:43;;;;;;;35.47;18.73;;;4.40;99.90;;;;;;5038538;28;20440;-68
2020/12/01 09:02:11;;;;;;;29.80;19.10;;;4.40;99.90;;;;;;5039599;28;20463;-67
2020/12/01 09:04:39;;;;;;;31.50;19.30;;;4.40;99.90;;;;;;5037731;28;20444;-68
2020/12/01 09:07:19;;;;;;;29.40;19.27;;;4.50;99.90;;;;;;5039395;28;20480;-67
2020/12/01 09:09:45;;;;;;;31.87;20.87;;;4.60;99.90;;;;;;5037781;28;20505;-67
2020/12/01 09:12:23;;;;;;;30.50;19.40;;;4.50;99.90;;;;;;5037223;28;20478;-67
2020/12/01 09:17:40;;;;;;;29.73;17.23;;;4.50;99.90;;;;;;5039251;28;20845;-68
2020/12/01 09:20:18;;;;;;;30.07;17.70;;;4.60;99.90;;;;;;5039333;28;20458;-68
2020/12/01 09:22:44;;;;;;;27.90;17.63;;;4.40;99.90;;;;;;5038916;28;20440;-67
2020/12/01 09:25:19;;;;;;;29.87;19.30;;;4.40;99.90;;;;;;5036000;28;20444;-66
2020/12/01 09:27:46;;;;;;;29.80;17.77;;;4.40;99.90;;;;;;5037259;28;20466;-65
2020/12/01 09:30:25;;;;;;;27.27;18.40;;;4.50;99.90;;;;;;5039285;28;20474;-66
2020/12/01 09:32:52;;;;;;;31.40;17.60;;;4.40;99.90;;;;;;5038942;28;20539;-66
2020/12/01 09:35:18;;;;;;;29.50;19.10;;;4.50;99.90;;;;;;5039080;28;20546;-66
2020/12/01 09:37:44;;;;;;;31.07;19.13;;;4.50;99.90;;;;;;5039569;28;20530;-66
2020/12/01 09:40:10;;;;;;;26.43;18.17;;;4.60;99.90;;;;;;5046181;28;20467;-59
2020/12/01 09:42:38;;;;;;;27.83;17.77;;;4.60;99.90;;;;;;5038334;28;20451;-58
2020/12/01 09:47:49;;;;;;;32.13;19.23;;;4.80;99.90;;;;;;5037008;28;20463;-59
2020/12/01 09:50:20;;;;;;;31.60;19.17;;;5.00;99.90;;;;;;5040966;28;20956;-60
2020/12/01 09:55:45;;;;;;;25.53;17.60;;;4.90;99.90;;;;;;5031816;28;20452;-58
2020/12/01 09:58:22;;;;;;;27.70;17.77;;;4.80;99.90;;;;;;5039255;28;20483;-57
2020/12/01 10:09:22;;;;;;;28.00;17.80;;;4.90;99.90;;;;;;5002219;28;20514;-59
2020/12/01 10:12:14;;;;;;;27.63;18.27;;;5.00;99.90;;;;;;5040964;28;20455;-59
2020/12/01 10:25:55;;;;;;;30.50;18.40;;;5.20;99.90;;;;;;5040884;28;20426;-58
2020/12/01 10:36:36;;;;;;;26.80;17.87;;;5.20;99.90;;;;;;5041206;28;20428;-59
2020/12/01 10:39:04;;;;;;;23.93;17.40;;;5.10;99.90;;;;;;5041010;28;20462;-58
2020/12/01 10:41:32;;;;;;;25.57;17.80;;;5.10;99.90;;;;;;5040089;28;20514;-59
2020/12/01 10:43:58;;;;;;;26.90;18.20;;;5.00;99.90;;;;;;5039791;28;20547;-59
2020/12/01 10:46:25;;;;;;;27.90;17.57;;;5.00;99.90;;;;;;5039890;28;20448;-58
2020/12/01 10:48:51;;;;;;;27.00;18.57;;;5.00;99.90;;;;;;5039855;28;20451;-59
2020/12/01 10:51:17;;;;;;;23.93;17.27;;;4.90;99.90;;;;;;5039646;28;20479;-60
2020/12/01 10:53:44;;;;;;;28.00;18.53;;;4.80;99.90;;;;;;5040310;28;20444;-58
2020/12/01 10:56:11;;;;;;;28.70;16.87;;;4.70;99.90;;;;;;5039307;28;20475;-68
2020/12/01 10:58:37;;;;;;;26.73;18.23;;;4.80;99.90;;;;;;5040910;28;20483;-68
2020/12/01 11:01:03;;;;;;;27.10;18.17;;;4.80;99.90;;;;;;5040072;28;20451;-67
2020/12/01 11:03:30;;;;;;;30.43;17.70;;;4.70;99.90;;;;;;5040115;28;20479;-68
2020/12/01 11:05:56;;;;;;;25.20;17.93;;;4.70;99.90;;;;;;5040018;28;20452;-68
2020/12/01 11:08:22;;;;;;;27.90;18.37;;;4.60;99.90;;;;;;5039651;28;20480;-67
2020/12/01 11:10:48;;;;;;;26.60;17.80;;;4.70;99.90;;;;;;5038013;28;20459;-67
2020/12/01 11:13:15;;;;;;;31.03;18.00;;;4.60;99.90;;;;;;5038367;28;20452;-67
2020/12/01 11:15:41;;;;;;;28.63;17.93;;;4.70;99.90;;;;;;5038877;28;20440;-68
2020/12/01 11:18:07;;;;;;;25.53;16.37;;;4.70;99.90;;;;;;5039162;28;20471;-68
2020/12/01 11:20:34;;;;;;;27.87;18.43;;;4.70;99.90;;;;;;5039457;28;20451;-69
2020/12/01 11:23:01;;;;;;;27.73;16.57;;;4.80;99.90;;;;;;5039714;28;20487;-68
2020/12/01 11:25:27;;;;;;;28.83;18.43;;;4.80;99.90;;;;;;5040126;28;20463;-67
2020/12/01 11:27:53;;;;;;;25.93;17.73;;;4.70;99.90;;;;;;5042013;28;20480;-67
2020/12/01 11:30:23;;;;;;;29.03;17.07;;;4.80;99.90;;;;;;5040691;28;20470;-68
2020/12/01 11:32:50;;;;;;;27.40;16.87;;;4.80;99.90;;;;;;5039603;28;20452;-69
2020/12/01 11:35:19;;;;;;;24.57;16.63;;;4.90;99.90;;;;;;5040347;28;20467;-68
2020/12/01 11:37:45;;;;;;;27.90;17.40;;;5.00;99.90;;;;;;5040300;28;20456;-60
2020/12/01 11:40:12;;;;;;;26.10;15.87;;;5.10;99.90;;;;;;5040339;28;20508;-60
2020/12/01 11:42:39;;;;;;;24.30;16.77;;;5.20;99.90;;;;;;5038466;28;20538;-59
2020/12/01 11:45:06;;;;;;;28.83;18.63;;;5.30;99.90;;;;;;5040517;28;20460;-60
2020/12/01 11:47:33;;;;;;;24.97;16.50;;;5.30;99.90;;;;;;5040738;28;20489;-60
2020/12/01 11:49:59;;;;;;;28.00;18.70;;;5.30;99.90;;;;;;5039567;28;20452;-60
2020/12/01 11:52:25;;;;;;;25.90;16.17;;;5.30;99.90;;;;;;5040339;28;20456;-59
2020/12/01 11:54:51;;;;;;;33.77;19.23;;;5.30;99.90;;;;;;5038984;28;20475;-59
2020/12/01 11:57:17;;;;;;;27.43;18.30;;;5.40;99.90;;;;;;5037410;28;20774;-57
2020/12/01 11:59:43;;;;;;;27.40;16.97;;;5.40;99.90;;;;;;5036956;28;20452;-59
2020/12/01 12:02:09;;;;;;;27.80;17.10;;;5.50;99.90;;;;;;5035534;28;20518;-58
2020/12/01 12:04:36;;;;;;;25.93;18.10;;;5.60;99.90;;;;;;5035323;28;20506;-59
2020/12/01 12:07:02;;;;;;;27.43;18.07;;;5.80;99.90;;;;;;5035473;28;20492;-58
2020/12/01 12:09:29;;;;;;;26.13;16.50;;;5.90;99.90;;;;;;5035211;28;20522;-58
2020/12/01 12:11:55;;;;;;;25.33;17.23;;;6.00;99.90;;;;;;5035118;28;20526;-60
2020/12/01 12:14:21;;;;;;;25.90;17.90;;;6.10;99.90;;;;;;5038278;28;20456;-60
2020/12/01 12:16:47;;;;;;;31.10;18.30;;;6.20;99.90;;;;;;5037407;28;20452;-60
2020/12/01 12:19:13;;;;;;;27.80;16.50;;;6.20;99.90;;;;;;5035662;28;20463;-60
2020/12/01 12:21:40;;;;;;;28.77;18.00;;;6.20;99.90;;;;;;5037304;28;20467;-60
2020/12/01 12:24:06;;;;;;;25.43;17.13;;;6.20;99.90;;;;;;5038436;28;20456;-59
2020/12/01 12:26:32;;;;;;;25.63;17.43;;;6.10;99.90;;;;;;5036215;28;20525;-69
2020/12/01 12:28:58;;;;;;;25.60;16.67;;;6.10;99.90;;;;;;5035885;28;20518;-68
2020/12/01 12:31:24;;;;;;;27.43;16.10;;;6.20;99.90;;;;;;5036414;28;20551;-67
2020/12/01 12:33:50;;;;;;;23.57;16.07;;;6.20;99.90;;;;;;5035715;28;20912;-68
2020/12/01 12:36:16;;;;;;;24.20;16.83;;;6.30;99.90;;;;;;5035251;28;20481;-67
2020/12/01 12:38:43;;;;;;;20.53;14.37;;;6.40;99.90;;;;;;5034684;28;20448;-68
2020/12/01 12:41:09;;;;;;;26.43;19.07;;;6.50;99.90;;;;;;5035299;28;20456;-68
2020/12/01 12:43:36;;;;;;;27.10;18.40;;;6.50;99.90;;;;;;5036160;28;20480;-66
2020/12/01 12:46:02;;;;;;;26.17;17.53;;;6.60;99.90;;;;;;5035990;28;20467;-68
2020/12/01 12:48:29;;;;;;;24.33;17.20;;;6.60;99.90;;;;;;5036743;28;20553;-67
2020/12/01 12:50:56;;;;;;;27.53;17.63;;;6.60;99.90;;;;;;5037996;28;20518;-67
2020/12/01 12:53:22;;;;;;;24.87;18.33;;;6.60;99.90;;;;;;5038079;28;20471;-68
2020/12/01 12:55:50;;;;;;;27.80;18.40;;;6.50;99.90;;;;;;5036646;28;20456;-68
2020/12/01 12:58:16;;;;;;;28.33;17.67;;;6.50;99.90;;;;;;5037508;28;20452;-68
2020/12/01 13:00:42;;;;;;;24.80;17.17;;;6.40;99.90;;;;;;5037435;28;20463;-59
2020/12/01 13:03:08;;;;;;;26.07;18.00;;;6.30;99.90;;;;;;5041172;28;20480;-68
2020/12/01 13:05:34;;;;;;;23.30;16.80;;;6.00;99.90;;;;;;5042158;28;20458;-68
2020/12/01 13:08:01;;;;;;;26.63;18.60;;;5.90;99.90;;;;;;5042203;28;20479;-68
2020/12/01 13:10:27;;;;;;;26.13;17.03;;;5.90;99.90;;;;;;5041915;28;20451;-67
2020/12/01 13:12:54;;;;;;;25.60;16.50;;;5.80;99.90;;;;;;5042299;28;20456;-68
2020/12/01 13:15:21;;;;;;;24.63;17.17;;;5.90;99.90;;;;;;5041398;28;20908;-67
2020/12/01 13:21:31;;;;;;;24.70;16.40;;;6.10;99.90;;;;;;5035858;28;20462;-67
2020/12/01 13:31:41;;;;;;;23.80;15.67;;;6.20;99.90;;;;;;5040074;28;20412;-67
2020/12/01 13:34:08;;;;;;;25.13;15.43;;;6.20;99.90;;;;;;5041190;28;20921;-59
2020/12/01 13:36:34;;;;;;;25.53;17.50;;;6.20;99.90;;;;;;5041222;28;20525;-68
2020/12/01 13:39:01;;;;;;;25.97;16.77;;;6.20;99.90;;;;;;5040687;28;20463;-68